createdAt,value
2022-09-07T00:00:08.875Z,60.30
2022-09-07T00:05:10.634Z,60.35
2022-09-07T00:10:12.270Z,60.57
2022-09-07T00:15:13.866Z,60.63
2022-09-07T00:20:15.620Z,60.98
2022-09-07T00:25:17.336Z,60.92
2022-09-07T00:30:19.053Z,63.00
2022-09-07T00:35:20.839Z,63.11
2022-09-07T00:40:22.527Z,63.31
2022-09-07T00:45:24.391Z,63.08
2022-09-07T00:50:57.538Z,64.26
2022-09-07T00:55:59.916Z,63.98
2022-09-07T01:01:01.819Z,64.60
2022-09-07T01:06:13.530Z,64.84
2022-09-07T01:11:18.001Z,64.94
2022-09-07T01:16:35.848Z,66.35
2022-09-07T01:22:12.796Z,68.96
2022-09-07T01:27:38.853Z,71.08
2022-09-07T01:32:46.511Z,70.57
2022-09-07T01:37:48.064Z,70.52
2022-09-07T01:43:04.512Z,70.71
2022-09-07T01:48:09.113Z,70.06
2022-09-07T01:53:18.029Z,70.08
2022-09-07T01:58:32.768Z,69.29
2022-09-07T02:04:00.459Z,69.13
2022-09-07T02:09:12.996Z,70.10
2022-09-07T02:14:25.598Z,69.16
2022-09-07T02:19:33.777Z,69.17
2022-09-07T02:24:43.119Z,69.70
2022-09-07T02:29:44.960Z,69.20
2022-09-07T02:34:46.698Z,69.11
2022-09-07T02:39:49.429Z,68.77
2022-09-07T02:44:51.181Z,69.53
2022-09-07T02:50:14.038Z,69.19
2022-09-07T02:55:44.741Z,69.46
2022-09-07T03:01:24.021Z,68.82
2022-09-07T03:06:25.713Z,68.07
2022-09-07T03:11:29.154Z,68.09
2022-09-07T03:16:30.838Z,69.19
2022-09-07T03:21:32.666Z,68.93
2022-09-07T03:26:39.009Z,68.78
2022-09-07T03:31:40.935Z,68.60
2022-09-07T03:36:43.165Z,68.36
2022-09-07T03:41:44.800Z,68.52
2022-09-07T03:46:46.578Z,68.50
2022-09-07T03:51:48.424Z,68.62
2022-09-07T03:56:50.108Z,68.25
2022-09-07T04:01:52.065Z,68.56
2022-09-07T04:06:53.814Z,68.41
2022-09-07T04:11:55.515Z,69.15
2022-09-07T04:16:57.454Z,69.06
2022-09-07T04:21:59.208Z,69.30
2022-09-07T04:27:02.146Z,69.11
2022-09-07T04:32:03.849Z,68.83
2022-09-07T04:37:05.521Z,68.63
2022-09-07T04:42:07.253Z,68.00
2022-09-07T04:47:09.396Z,67.93
2022-09-07T04:52:11.033Z,68.23
2022-09-07T04:57:12.685Z,67.82
2022-09-07T05:02:14.428Z,67.73
2022-09-07T05:07:16.197Z,67.76
2022-09-07T05:12:17.906Z,68.10
2022-09-07T05:17:19.829Z,67.77
2022-09-07T05:22:22.411Z,67.78
2022-09-07T05:27:24.175Z,68.37
2022-09-07T05:32:25.934Z,68.26
2022-09-07T05:37:27.591Z,68.34
2022-09-07T05:42:29.241Z,68.09
2022-09-07T05:47:31.276Z,67.83
2022-09-07T05:52:33.353Z,68.08
2022-09-07T05:57:35.049Z,67.29
2022-09-07T06:02:39.809Z,67.02
2022-09-07T06:07:41.961Z,66.63
2022-09-07T06:12:48.991Z,66.51
2022-09-07T06:17:51.186Z,65.48
2022-09-07T06:22:52.931Z,63.52
2022-09-07T06:27:54.572Z,63.56
2022-09-07T06:32:56.199Z,63.81
2022-09-07T06:37:58.277Z,63.61
2022-09-07T06:42:59.985Z,63.98
2022-09-07T06:48:01.657Z,64.41
2022-09-07T06:58:25.951Z,63.86
2022-09-07T07:03:28.592Z,63.41
2022-09-07T07:08:30.850Z,62.77
2022-09-07T07:13:32.574Z,62.12
2022-09-07T07:18:35.106Z,62.30
2022-09-07T07:23:37.488Z,62.38
2022-09-07T07:34:05.381Z,62.22
2022-09-07T07:39:07.171Z,60.35
2022-09-07T07:44:09.454Z,60.15
2022-09-07T07:49:11.048Z,59.61
2022-09-07T07:54:12.692Z,58.31
2022-09-07T07:59:15.890Z,57.74
2022-09-07T08:04:18.069Z,56.98
2022-09-07T08:09:19.759Z,56.74
2022-09-07T08:14:22.294Z,56.48
2022-09-07T08:19:24.205Z,55.64
2022-09-07T08:24:26.603Z,54.71
2022-09-07T08:29:32.639Z,54.77
2022-09-07T08:34:37.317Z,55.20
2022-09-07T08:39:39.009Z,56.95
2022-09-07T08:44:51.113Z,57.73
2022-09-07T08:50:10.080Z,56.68
2022-09-07T08:55:21.716Z,55.93
2022-09-07T09:00:23.357Z,56.22
2022-09-07T09:05:28.401Z,55.95
2022-09-07T09:10:41.832Z,55.30
2022-09-07T09:16:05.506Z,55.07
2022-09-07T09:21:14.544Z,52.77
2022-09-07T09:26:26.245Z,52.76
2022-09-07T09:31:36.894Z,50.08
2022-09-07T09:36:44.640Z,49.79
2022-09-07T09:41:47.555Z,48.31
2022-09-07T09:52:29.824Z,48.64
2022-09-07T10:08:58.434Z,46.32
2022-09-07T10:14:00.614Z,46.40
2022-09-07T10:19:03.348Z,46.56
2022-09-07T10:24:05.125Z,45.61
2022-09-07T10:29:08.730Z,45.24
2022-09-07T10:34:33.583Z,45.26
2022-09-07T10:39:39.750Z,44.92
2022-09-07T10:45:05.600Z,45.35
2022-09-07T10:50:30.233Z,44.53
2022-09-07T10:55:36.623Z,45.45
2022-09-07T11:01:02.570Z,45.62
2022-09-07T11:06:23.229Z,45.42
2022-09-07T11:16:58.541Z,44.47
2022-09-07T11:22:16.180Z,44.35
2022-09-07T11:27:34.313Z,43.82
2022-09-07T11:32:38.617Z,43.61
2022-09-07T11:37:46.601Z,42.31
2022-09-07T11:42:59.878Z,41.29
2022-09-07T11:48:21.941Z,42.58
2022-09-07T11:53:29.262Z,40.76
2022-09-07T11:58:49.134Z,40.65
2022-09-07T12:04:14.628Z,39.52
2022-09-07T12:09:49.627Z,39.55
2022-09-07T12:15:19.741Z,40.01
2022-09-07T12:20:28.274Z,39.98
2022-09-07T12:25:31.041Z,40.60
2022-09-07T12:30:36.771Z,39.62
2022-09-07T12:35:43.872Z,39.79
2022-09-07T12:40:59.579Z,39.45
2022-09-07T12:46:02.288Z,40.49
2022-09-07T13:02:46.116Z,35.10
2022-09-07T13:08:09.894Z,35.33
2022-09-07T13:13:14.649Z,36.97
2022-09-07T13:18:28.737Z,36.33
2022-09-07T13:23:31.392Z,35.39
2022-09-07T13:29:03.164Z,35.45
2022-09-07T13:34:38.879Z,35.10
2022-09-07T13:39:47.487Z,34.94
2022-09-07T13:44:55.696Z,34.97
2022-09-07T13:50:22.915Z,34.43
2022-09-07T13:55:35.797Z,34.94
2022-09-07T14:00:53.041Z,34.61
2022-09-07T14:06:15.044Z,34.42
2022-09-07T14:11:23.553Z,34.73
2022-09-07T14:16:26.718Z,34.42
2022-09-07T14:21:28.488Z,33.56
2022-09-07T14:26:36.399Z,32.99
2022-09-07T14:31:46.748Z,31.70
2022-09-07T14:36:50.727Z,32.48
2022-09-07T14:41:57.690Z,32.43
2022-09-07T14:47:08.713Z,32.14
2022-09-07T14:58:33.222Z,33.55
2022-09-07T15:03:41.179Z,33.53
2022-09-07T15:08:47.276Z,34.47
2022-09-07T15:13:58.132Z,33.99
2022-09-07T15:19:16.141Z,34.03
2022-09-07T15:24:17.796Z,34.73
2022-09-07T15:29:21.129Z,34.29
2022-09-07T15:34:32.454Z,34.04
2022-09-07T15:39:36.116Z,33.62
2022-09-07T15:44:38.146Z,34.00
2022-09-07T15:49:47.466Z,34.61
2022-09-07T15:54:51.159Z,34.90
2022-09-07T15:59:53.005Z,34.85
2022-09-07T16:05:04.778Z,35.42
2022-09-07T16:10:07.468Z,35.39
2022-09-07T16:15:12.646Z,35.63
2022-09-07T16:20:14.618Z,35.49
2022-09-07T16:25:16.374Z,34.88
2022-09-07T16:30:19.138Z,35.04
2022-09-07T16:35:20.950Z,35.80
2022-09-07T16:40:25.623Z,35.87
2022-09-07T16:50:58.920Z,36.80
2022-09-07T16:56:06.075Z,37.10
2022-09-07T17:01:15.171Z,37.55
2022-09-07T17:06:18.493Z,37.06
2022-09-07T17:11:24.162Z,36.49
2022-09-07T17:16:32.422Z,37.79
2022-09-07T17:21:39.262Z,37.96
2022-09-07T17:26:42.184Z,38.89
2022-09-07T17:37:11.249Z,39.18
2022-09-07T17:42:14.129Z,39.60
2022-09-07T17:47:15.950Z,41.48
2022-09-07T17:52:17.988Z,42.63
2022-09-07T17:57:20.684Z,43.07
2022-09-07T18:02:28.616Z,42.92
2022-09-07T18:07:32.884Z,43.40
2022-09-07T18:12:35.893Z,44.03
2022-09-07T18:17:42.491Z,45.29
2022-09-07T18:22:44.854Z,46.29
2022-09-07T18:29:03.093Z,46.32
2022-09-07T18:33:09.559Z,47.37
2022-09-07T18:38:11.841Z,47.94
2022-09-07T18:43:13.546Z,48.70
2022-09-07T18:48:15.253Z,48.85
2022-09-07T18:53:17.083Z,48.75
2022-09-07T18:58:19.005Z,49.19
2022-09-07T19:03:21.466Z,49.23
2022-09-07T19:08:23.157Z,49.69
2022-09-07T19:13:24.865Z,50.07
2022-09-07T19:18:26.530Z,50.23
2022-09-07T19:23:28.193Z,50.70
2022-09-07T19:28:30.399Z,51.19
2022-09-07T19:33:37.893Z,51.10
2022-09-07T19:38:39.933Z,51.79
2022-09-07T19:43:41.683Z,51.95
2022-09-07T19:48:44.383Z,52.67
2022-09-07T19:53:47.182Z,53.28
2022-09-07T19:58:49.834Z,53.64
2022-09-07T20:04:25.989Z,53.96
2022-09-07T20:09:27.780Z,53.65
2022-09-07T20:14:29.539Z,53.86
2022-09-07T20:19:31.274Z,54.46
2022-09-07T20:24:34.547Z,54.86
2022-09-07T20:29:36.289Z,55.05
2022-09-07T20:34:38.009Z,55.03
2022-09-07T20:40:14.475Z,55.23
2022-09-07T20:45:16.347Z,55.41
2022-09-07T20:50:18.064Z,55.74
2022-09-07T20:55:20.781Z,56.12
2022-09-07T21:00:23.145Z,56.83
2022-09-07T21:05:24.916Z,56.88
2022-09-07T21:10:27.068Z,56.67
2022-09-07T21:15:29.431Z,56.73
2022-09-07T21:20:32.025Z,56.50
2022-09-07T21:25:33.764Z,56.66
2022-09-07T21:30:35.451Z,56.67
2022-09-07T21:35:37.102Z,56.47
2022-09-07T21:40:41.178Z,56.85
2022-09-07T21:45:42.889Z,56.84
2022-09-07T21:50:46.848Z,56.78
2022-09-07T21:55:59.429Z,57.49
2022-09-07T22:01:11.052Z,57.72
2022-09-07T22:06:13.501Z,57.74
2022-09-07T22:17:46.215Z,58.02
2022-09-07T22:22:48.287Z,57.91
2022-09-07T22:27:50.164Z,57.83
2022-09-07T22:32:52.005Z,58.14
2022-09-07T22:37:53.665Z,58.33
2022-09-07T22:42:55.303Z,58.37
2022-09-07T22:47:57.465Z,58.44
2022-09-07T22:52:59.257Z,58.46
2022-09-07T22:58:00.940Z,58.52
2022-09-07T23:03:03.936Z,58.87
2022-09-07T23:08:06.026Z,58.55
2022-09-07T23:13:09.150Z,58.78
2022-09-07T23:18:19.475Z,58.49
2022-09-07T23:23:21.135Z,58.62
2022-09-07T23:28:22.864Z,58.90
2022-09-07T23:33:26.289Z,58.71
2022-09-07T23:38:28.654Z,58.73
2022-09-07T23:43:31.487Z,58.86
2022-09-07T23:48:33.202Z,58.92
2022-09-07T23:53:35.125Z,58.87
2022-09-07T23:58:36.892Z,58.96
